Time;durP1;ratioP1;P1;durP2;ratioP2;P2;SDS_P1;SDS_P2;PMS_P1;PMS_P2;Temp;Humidity;BMP_temperature;BMP_pressure;BME280_temperature;BME280_humidity;BME280_pressure;Samples;Min_cycle;Max_cycle;Signal;HPM_P1;HPM_P2
2022/10/25 00:01:54;;;;;;;4.43;1.50;;;13.60;99.90;;;;;;5134085;27;20924;-61
2022/10/25 00:04:21;;;;;;;3.20;1.60;;;13.60;99.90;;;;;;5134351;27;20480;-61
2022/10/25 00:06:48;;;;;;;7.13;2.10;;;13.60;99.90;;;;;;5134207;27;20487;-61
2022/10/25 00:09:16;;;;;;;3.10;1.30;;;13.60;99.90;;;;;;5134320;27;20444;-61
2022/10/25 00:11:42;;;;;;;4.00;1.33;;;13.60;99.90;;;;;;5134249;27;20467;-61
2022/10/25 00:14:14;;;;;;;3.13;1.77;;;13.60;99.90;;;;;;5134241;28;20831;-61
2022/10/25 00:16:41;;;;;;;3.00;1.40;;;13.60;99.90;;;;;;5133909;28;20445;-61
2022/10/25 00:19:10;;;;;;;2.40;0.97;;;13.60;99.90;;;;;;5134134;28;20437;-61
2022/10/25 00:21:37;;;;;;;3.83;1.40;;;13.60;99.90;;;;;;5134244;28;20447;-61
2022/10/25 00:24:04;;;;;;;5.60;1.40;;;13.60;99.90;;;;;;5133834;28;20436;-60
2022/10/25 00:26:33;;;;;;;3.20;1.40;;;13.60;99.90;;;;;;5137057;27;20453;-61
2022/10/25 00:28:59;;;;;;;2.33;1.50;;;13.60;99.90;;;;;;5138305;27;20482;-61
2022/10/25 00:31:26;;;;;;;4.63;1.23;;;13.60;99.90;;;;;;5138390;27;20440;-61
2022/10/25 00:33:53;;;;;;;1.97;1.67;;;13.60;99.90;;;;;;5139709;27;20439;-60
2022/10/25 00:36:21;;;;;;;2.67;1.20;;;13.50;99.90;;;;;;5141464;27;20498;-60
2022/10/25 00:38:48;;;;;;;3.07;1.20;;;13.50;99.90;;;;;;5140101;27;20436;-60
2022/10/25 00:41:17;;;;;;;3.00;1.53;;;13.50;99.90;;;;;;5143023;27;20444;-59
2022/10/25 00:43:47;;;;;;;4.97;1.20;;;13.50;99.90;;;;;;5139180;27;20432;-61
2022/10/25 00:46:20;;;;;;;8.53;1.40;;;13.50;99.90;;;;;;5138153;27;20525;-60
2022/10/25 00:48:53;;;;;;;1.90;1.33;;;13.50;99.90;;;;;;5137944;27;20934;-61
2022/10/25 00:51:21;;;;;;;3.90;1.37;;;13.50;99.90;;;;;;5138163;27;20424;-61
2022/10/25 00:53:48;;;;;;;4.20;1.37;;;13.60;99.90;;;;;;5138131;27;20449;-61
2022/10/25 00:56:18;;;;;;;4.50;2.03;;;13.60;99.90;;;;;;5137726;27;20479;-62
2022/10/25 00:58:51;;;;;;;2.10;1.07;;;13.70;99.90;;;;;;5138101;27;20452;-60
2022/10/25 01:01:18;;;;;;;3.37;1.80;;;13.70;99.90;;;;;;5137788;27;20435;-61
2022/10/25 01:03:47;;;;;;;5.13;2.57;;;13.80;99.90;;;;;;5137732;27;20448;-61
2022/10/25 01:06:26;;;;;;;2.20;1.20;;;13.80;99.90;;;;;;5146263;27;20457;-60
2022/10/25 01:08:53;;;;;;;3.30;1.03;;;13.90;99.90;;;;;;5149289;27;20428;-60
2022/10/25 01:11:20;;;;;;;4.70;1.10;;;13.90;99.90;;;;;;5139280;27;20475;-61
2022/10/25 01:13:50;;;;;;;5.10;2.10;;;13.90;99.90;;;;;;5139360;27;20444;-61
2022/10/25 01:16:26;;;;;;;3.40;1.60;;;14.00;99.90;;;;;;5138593;27;20487;-61
2022/10/25 01:19:00;;;;;;;3.40;1.30;;;14.00;99.90;;;;;;5138627;27;20428;-61
2022/10/25 01:21:47;;;;;;;2.80;1.37;;;14.00;99.90;;;;;;5138385;27;20429;-61
2022/10/25 01:25:01;;;;;;;3.40;1.53;;;14.00;99.90;;;;;;5137697;27;20451;-60
2022/10/25 01:28:02;;;;;;;4.73;2.00;;;14.10;99.90;;;;;;5137164;27;20460;-61
2022/10/25 01:31:06;;;;;;;3.83;1.80;;;14.10;99.90;;;;;;5137269;27;20935;-60
2022/10/25 01:33:37;;;;;;;4.03;1.73;;;14.10;99.90;;;;;;5137292;27;20416;-59
2022/10/25 01:36:12;;;;;;;2.67;1.60;;;14.20;99.90;;;;;;5136980;27;20821;-60
2022/10/25 01:38:43;;;;;;;4.80;1.87;;;14.20;99.90;;;;;;5136320;27;20432;-61
2022/10/25 01:41:17;;;;;;;3.77;1.97;;;14.20;99.90;;;;;;5137202;27;20426;-60
2022/10/25 01:43:54;;;;;;;2.97;1.60;;;14.20;99.90;;;;;;5137057;27;20433;-61
2022/10/25 01:46:28;;;;;;;5.57;1.73;;;14.20;99.90;;;;;;5136983;27;20463;-61
2022/10/25 01:49:01;;;;;;;2.40;1.70;;;14.10;99.90;;;;;;5137298;27;20420;-59
2022/10/25 01:51:28;;;;;;;3.83;2.30;;;14.00;99.90;;;;;;5139255;27;20421;-61
2022/10/25 01:53:55;;;;;;;5.47;2.17;;;14.00;99.90;;;;;;5139608;27;20441;-60
2022/10/25 01:56:27;;;;;;;6.40;2.10;;;13.90;99.90;;;;;;5139335;27;20480;-60
2022/10/25 01:59:23;;;;;;;5.07;1.60;;;13.80;99.90;;;;;;5139576;27;20429;-60
2022/10/25 02:02:02;;;;;;;3.33;1.73;;;13.80;99.90;;;;;;5134742;27;20456;-60
2022/10/25 02:04:39;;;;;;;3.37;1.90;;;13.70;99.90;;;;;;5138162;27;20421;-60
2022/10/25 02:07:11;;;;;;;5.07;1.60;;;13.70;99.90;;;;;;5137249;27;20464;-61
2022/10/25 02:09:46;;;;;;;8.60;1.90;;;13.70;99.90;;;;;;5136703;27;20432;-61
2022/10/25 02:12:21;;;;;;;4.50;2.30;;;13.70;99.90;;;;;;5136245;27;20923;-61
2022/10/25 02:14:57;;;;;;;3.93;2.20;;;13.70;99.90;;;;;;5136437;27;20786;-61
2022/10/25 02:17:27;;;;;;;3.47;2.00;;;13.70;99.90;;;;;;5137293;27;20448;-60
2022/10/25 02:19:59;;;;;;;3.43;1.93;;;13.70;99.90;;;;;;5139945;27;20440;-60
2022/10/25 02:22:29;;;;;;;3.63;2.60;;;13.60;99.90;;;;;;5138380;27;20429;-60
2022/10/25 02:24:57;;;;;;;4.47;2.63;;;13.70;99.90;;;;;;5138833;27;20441;-62
2022/10/25 02:27:25;;;;;;;4.13;2.60;;;13.70;99.90;;;;;;5138241;27;20465;-61
2022/10/25 02:29:54;;;;;;;3.60;2.60;;;13.60;99.90;;;;;;5138355;27;20440;-61
2022/10/25 02:32:21;;;;;;;5.50;3.23;;;13.50;99.90;;;;;;5138089;27;20444;-61
2022/10/25 02:34:50;;;;;;;5.63;2.87;;;13.50;99.90;;;;;;5137806;27;20452;-61
2022/10/25 02:37:17;;;;;;;3.70;2.53;;;13.40;99.90;;;;;;5136188;27;20489;-60
2022/10/25 02:39:45;;;;;;;3.63;2.70;;;13.40;99.90;;;;;;5136111;27;20441;-61
2022/10/25 02:42:12;;;;;;;2.93;2.63;;;13.40;99.90;;;;;;5136455;27;20447;-60
2022/10/25 02:44:38;;;;;;;6.10;2.70;;;13.30;99.90;;;;;;5135764;27;20448;-61
2022/10/25 02:47:05;;;;;;;5.80;4.00;;;13.30;99.90;;;;;;5135573;27;20456;-60
2022/10/25 02:49:32;;;;;;;5.03;3.40;;;13.30;99.90;;;;;;5134381;27;20444;-61
2022/10/25 02:52:00;;;;;;;5.87;3.73;;;13.30;99.90;;;;;;5135712;27;20445;-62
2022/10/25 02:54:26;;;;;;;3.97;3.33;;;13.20;99.90;;;;;;5135639;27;20559;-62
2022/10/25 02:56:53;;;;;;;7.50;4.43;;;13.20;99.90;;;;;;5135340;27;20480;-61
2022/10/25 02:59:20;;;;;;;6.23;4.00;;;13.20;99.90;;;;;;5135512;27;20810;-61
2022/10/25 03:01:47;;;;;;;6.20;3.20;;;13.20;99.90;;;;;;5135422;27;20445;-61
2022/10/25 03:04:14;;;;;;;5.73;3.80;;;13.20;99.90;;;;;;5135194;27;20440;-61
2022/10/25 03:06:41;;;;;;;5.10;4.60;;;13.20;99.90;;;;;;5134944;27;20821;-61
2022/10/25 03:09:09;;;;;;;12.10;4.20;;;13.30;99.90;;;;;;5135315;27;20439;-61
2022/10/25 03:11:35;;;;;;;7.93;4.37;;;13.30;99.90;;;;;;5135403;27;20440;-61
2022/10/25 03:14:02;;;;;;;7.43;4.70;;;13.30;99.90;;;;;;5135047;27;20912;-62
2022/10/25 03:16:29;;;;;;;7.30;5.20;;;13.30;99.90;;;;;;5135090;27;20476;-61
2022/10/25 03:18:57;;;;;;;6.40;5.00;;;13.30;99.90;;;;;;5135135;27;20447;-62
2022/10/25 03:21:24;;;;;;;9.37;5.20;;;13.40;99.90;;;;;;5135204;27;20472;-61
2022/10/25 03:23:51;;;;;;;8.10;5.50;;;13.40;99.90;;;;;;5135122;27;20448;-61
2022/10/25 03:26:19;;;;;;;5.60;5.00;;;13.40;99.90;;;;;;5135232;27;20813;-61
2022/10/25 03:28:46;;;;;;;8.20;5.07;;;13.50;99.90;;;;;;5134994;27;20440;-61
2022/10/25 03:31:14;;;;;;;12.60;6.10;;;13.50;99.90;;;;;;5134715;27;20452;-61
2022/10/25 03:33:41;;;;;;;5.83;5.27;;;13.50;99.90;;;;;;5135087;27;20441;-61
2022/10/25 03:36:09;;;;;;;6.30;5.17;;;13.60;99.90;;;;;;5134578;27;20485;-61
2022/10/25 03:38:36;;;;;;;11.80;6.07;;;13.60;99.90;;;;;;5134706;27;20425;-61
2022/10/25 03:41:02;;;;;;;6.17;5.60;;;13.60;99.90;;;;;;5134694;27;20444;-61
2022/10/25 03:43:30;;;;;;;6.70;6.00;;;13.70;99.90;;;;;;5134688;27;20449;-61
2022/10/25 03:45:57;;;;;;;10.80;5.97;;;13.70;99.90;;;;;;5134662;27;20452;-60
2022/10/25 03:48:24;;;;;;;7.10;6.03;;;13.70;99.90;;;;;;5135382;27;20451;-61
2022/10/25 03:50:51;;;;;;;13.73;6.27;;;13.80;99.90;;;;;;5134289;27;20810;-61
2022/10/25 03:53:17;;;;;;;7.13;6.30;;;13.80;99.90;;;;;;5134573;27;20441;-61
2022/10/25 03:55:44;;;;;;;10.70;5.73;;;13.80;99.90;;;;;;5134655;27;20858;-61
2022/10/25 03:58:11;;;;;;;7.07;6.30;;;13.80;99.90;;;;;;5134329;27;20443;-61
2022/10/25 04:00:39;;;;;;;6.70;6.00;;;13.80;99.90;;;;;;5133677;27;20790;-60
2022/10/25 04:03:05;;;;;;;10.10;7.00;;;13.80;99.90;;;;;;5133951;27;20960;-61
2022/10/25 04:05:32;;;;;;;10.30;6.40;;;13.80;99.90;;;;;;5134021;27;20464;-61
2022/10/25 04:10:28;;;;;;;7.63;6.93;;;13.70;99.90;;;;;;5090907;27;20611;-61
2022/10/25 04:12:55;;;;;;;8.83;7.37;;;13.80;99.90;;;;;;5091220;28;20435;-61
2022/10/25 04:15:22;;;;;;;8.70;6.97;;;13.80;99.90;;;;;;5091212;28;20449;-61
2022/10/25 04:17:49;;;;;;;10.27;7.30;;;13.80;99.90;;;;;;5090939;28;20445;-60
2022/10/25 04:20:16;;;;;;;8.53;7.50;;;13.80;99.90;;;;;;5090709;28;20883;-61
2022/10/25 04:22:43;;;;;;;8.30;7.50;;;13.80;99.90;;;;;;5090412;28;20942;-62
2022/10/25 04:25:10;;;;;;;7.93;7.10;;;13.80;99.90;;;;;;5090622;28;20442;-62
2022/10/25 04:27:38;;;;;;;8.23;7.43;;;13.80;99.90;;;;;;5090635;28;20438;-61
2022/10/25 04:30:05;;;;;;;8.70;7.80;;;13.80;99.90;;;;;;5090490;28;20482;-61
2022/10/25 04:32:32;;;;;;;8.87;8.00;;;13.80;99.90;;;;;;5090662;28;20438;-61
2022/10/25 04:34:59;;;;;;;11.67;7.43;;;13.90;99.90;;;;;;5090666;28;20446;-61
2022/10/25 04:37:25;;;;;;;11.13;7.60;;;13.90;99.90;;;;;;5090369;28;20473;-61
2022/10/25 04:39:52;;;;;;;8.70;7.03;;;13.90;99.90;;;;;;5089996;28;20953;-61
2022/10/25 04:42:19;;;;;;;12.47;7.13;;;13.90;99.90;;;;;;5093527;28;20476;-61
2022/10/25 04:44:47;;;;;;;9.83;7.00;;;13.90;99.90;;;;;;5107027;28;20445;-62
2022/10/25 04:47:13;;;;;;;8.43;7.13;;;14.00;99.90;;;;;;5093632;28;21001;-63
2022/10/25 04:49:40;;;;;;;12.80;6.40;;;14.00;99.90;;;;;;5090339;28;20470;-61
2022/10/25 04:52:07;;;;;;;7.03;6.43;;;14.00;99.90;;;;;;5089809;28;20894;-62
2022/10/25 04:54:33;;;;;;;8.60;5.90;;;14.00;99.90;;;;;;5090650;28;20446;-62
2022/10/25 04:57:00;;;;;;;7.30;6.60;;;14.00;99.90;;;;;;5089906;28;20469;-61
2022/10/25 04:59:27;;;;;;;8.53;6.87;;;14.10;99.90;;;;;;5090235;28;20441;-61
2022/10/25 05:01:55;;;;;;;10.17;6.83;;;14.10;99.90;;;;;;5083594;28;20447;-61
2022/10/25 05:04:22;;;;;;;7.37;6.07;;;14.10;99.90;;;;;;5069282;28;20906;-62
2022/10/25 05:06:48;;;;;;;8.57;5.40;;;14.10;99.90;;;;;;5069456;28;20476;-61
2022/10/25 05:09:15;;;;;;;12.20;6.43;;;14.10;99.90;;;;;;5069410;28;20486;-61
2022/10/25 05:11:42;;;;;;;9.50;5.20;;;14.10;99.90;;;;;;5069820;28;20443;-61
2022/10/25 05:14:09;;;;;;;10.00;5.17;;;14.10;99.90;;;;;;5074655;28;20456;-62
2022/10/25 05:16:35;;;;;;;6.23;4.90;;;14.10;99.90;;;;;;5083892;28;20470;-60
2022/10/25 05:19:03;;;;;;;5.60;5.20;;;14.10;99.90;;;;;;5089056;28;20533;-62
2022/10/25 05:21:30;;;;;;;5.90;4.80;;;14.10;99.90;;;;;;5077427;28;20447;-61
2022/10/25 05:23:57;;;;;;;6.40;5.47;;;14.20;99.90;;;;;;5057070;28;20202;-61
2022/10/25 05:26:24;;;;;;;5.40;4.90;;;14.20;99.90;;;;;;5056524;28;20892;-61
2022/10/25 05:28:53;;;;;;;9.27;5.30;;;14.20;99.90;;;;;;5055567;28;21009;-61
2022/10/25 05:31:22;;;;;;;6.50;5.77;;;14.20;99.90;;;;;;5055720;28;20458;-61
2022/10/25 05:33:50;;;;;;;6.13;5.53;;;14.10;99.90;;;;;;5055960;28;20444;-61
2022/10/25 05:36:18;;;;;;;6.10;5.50;;;14.10;99.90;;;;;;5056188;28;20472;-61
2022/10/25 05:38:45;;;;;;;6.57;5.77;;;14.10;99.90;;;;;;5056376;28;20447;-61
2022/10/25 05:41:14;;;;;;;8.63;6.30;;;14.10;99.90;;;;;;5055573;28;20436;-61
2022/10/25 05:43:40;;;;;;;10.60;6.07;;;14.10;99.90;;;;;;5075076;28;20444;-61
2022/10/25 05:46:10;;;;;;;7.80;5.93;;;14.10;99.90;;;;;;5075738;28;20474;-61
2022/10/25 05:48:37;;;;;;;7.17;6.47;;;14.10;99.90;;;;;;5058483;28;20534;-62
2022/10/25 05:51:11;;;;;;;10.70;6.57;;;14.10;99.90;;;;;;5055417;28;20445;-60
2022/10/25 05:53:43;;;;;;;10.87;7.20;;;14.10;99.90;;;;;;5056452;28;20444;-61
2022/10/25 05:56:11;;;;;;;8.50;6.27;;;14.20;99.90;;;;;;5055595;28;20475;-61
2022/10/25 05:58:38;;;;;;;8.73;7.03;;;14.20;99.90;;;;;;5055730;28;20442;-61
2022/10/25 06:01:05;;;;;;;10.67;7.17;;;14.10;99.90;;;;;;5062070;28;20970;-61
2022/10/25 06:03:32;;;;;;;8.70;7.23;;;14.20;99.90;;;;;;5074361;28;20478;-62
2022/10/25 06:06:01;;;;;;;7.60;6.53;;;14.20;99.90;;;;;;5058408;28;20829;-63
2022/10/25 06:08:28;;;;;;;8.90;6.80;;;14.20;99.90;;;;;;5075215;28;20516;-63
2022/10/25 06:11:00;;;;;;;6.80;6.10;;;14.20;99.90;;;;;;5075393;28;20468;-62
2022/10/25 06:13:27;;;;;;;8.60;6.80;;;14.20;99.90;;;;;;5064446;28;20447;-58
2022/10/25 06:15:54;;;;;;;10.57;7.30;;;14.20;99.90;;;;;;5076182;28;20554;-62
2022/10/25 06:18:20;;;;;;;8.70;6.20;;;14.20;99.90;;;;;;5077444;28;20440;-61
2022/10/25 06:20:47;;;;;;;10.10;7.07;;;14.20;99.90;;;;;;5068348;28;20837;-62
2022/10/25 06:23:14;;;;;;;11.13;7.33;;;14.20;99.90;;;;;;5074174;28;20443;-59
2022/10/25 06:25:40;;;;;;;9.03;6.10;;;14.20;99.90;;;;;;5060840;28;20475;-61
2022/10/25 06:28:09;;;;;;;10.13;7.60;;;14.20;99.90;;;;;;5059718;28;20444;-62
2022/10/25 06:30:36;;;;;;;10.20;7.40;;;14.10;99.90;;;;;;5060495;28;20487;-61
2022/10/25 06:33:02;;;;;;;9.33;7.17;;;14.10;99.90;;;;;;5058381;28;20440;-61
2022/10/25 06:35:29;;;;;;;6.67;6.07;;;14.00;99.90;;;;;;5070210;28;20487;-60
2022/10/25 06:37:59;;;;;;;8.80;7.53;;;14.00;99.90;;;;;;5065646;28;20444;-61
2022/10/25 06:40:26;;;;;;;11.97;5.90;;;14.00;99.90;;;;;;5054229;28;20510;-60
2022/10/25 06:42:55;;;;;;;10.97;5.90;;;13.90;99.90;;;;;;5054656;28;20474;-61
2022/10/25 06:45:23;;;;;;;9.77;6.50;;;13.90;99.90;;;;;;5098969;22;20548;-63
2022/10/25 06:47:50;;;;;;;12.37;6.03;;;13.90;99.90;;;;;;5054797;28;20440;-63
2022/10/25 06:50:17;;;;;;;9.63;6.13;;;13.90;99.90;;;;;;5055277;28;20566;-63
2022/10/25 06:52:44;;;;;;;6.27;4.90;;;13.90;99.90;;;;;;5074805;28;20538;-62
2022/10/25 06:55:10;;;;;;;7.10;6.07;;;13.90;99.90;;;;;;5074813;28;20831;-63
2022/10/25 06:57:37;;;;;;;9.40;6.50;;;13.90;99.90;;;;;;5060850;28;20444;-62
2022/10/25 07:00:05;;;;;;;8.50;6.20;;;13.90;99.90;;;;;;5054891;28;20943;-61
2022/10/25 07:02:33;;;;;;;7.23;6.07;;;13.90;99.90;;;;;;5054938;28;20455;-61
2022/10/25 07:05:00;;;;;;;12.43;6.30;;;13.90;99.90;;;;;;5059399;28;20829;-64
2022/10/25 07:07:26;;;;;;;9.00;6.33;;;13.90;99.90;;;;;;5075094;28;20962;-63
2022/10/25 07:09:53;;;;;;;8.03;6.20;;;13.90;99.90;;;;;;5074108;28;20474;-61
2022/10/25 07:12:20;;;;;;;10.30;6.60;;;13.90;99.90;;;;;;5073957;28;20447;-62
2022/10/25 07:14:47;;;;;;;10.27;6.60;;;13.90;99.90;;;;;;5067664;28;20466;-63
2022/10/25 07:17:13;;;;;;;9.43;6.27;;;14.00;99.90;;;;;;5058517;28;20452;-63
2022/10/25 07:19:41;;;;;;;11.00;6.43;;;14.00;99.90;;;;;;5054348;28;20447;-63
2022/10/25 07:22:08;;;;;;;7.63;5.87;;;14.00;99.90;;;;;;5063973;28;20466;-63
2022/10/25 07:24:35;;;;;;;8.13;5.53;;;14.10;99.90;;;;;;5062900;28;20490;-61
2022/10/25 07:27:02;;;;;;;9.27;6.30;;;14.10;99.90;;;;;;5074991;28;20473;-62
2022/10/25 07:29:29;;;;;;;9.13;6.10;;;14.10;99.90;;;;;;5076107;28;20545;-61
2022/10/25 07:31:56;;;;;;;9.30;5.80;;;14.10;99.90;;;;;;5076486;28;20450;-61
2022/10/25 07:34:23;;;;;;;10.80;7.57;;;14.10;99.90;;;;;;5077261;28;20502;-61
2022/10/25 07:36:51;;;;;;;7.77;5.67;;;14.20;99.90;;;;;;5064238;28;20451;-62
2022/10/25 07:39:17;;;;;;;11.20;5.40;;;14.20;99.90;;;;;;5054710;28;20449;-62
2022/10/25 07:41:44;;;;;;;6.60;5.47;;;14.30;99.90;;;;;;5065542;28;20454;-62
2022/10/25 07:44:11;;;;;;;8.07;5.60;;;14.30;99.90;;;;;;5068765;28;20479;-62
2022/10/25 07:46:38;;;;;;;10.67;5.70;;;14.30;99.90;;;;;;5054798;28;20436;-62
2022/10/25 07:49:04;;;;;;;11.33;5.57;;;14.40;99.90;;;;;;5055786;28;20440;-61
2022/10/25 07:51:31;;;;;;;5.77;5.00;;;14.50;99.90;;;;;;5054630;28;20444;-60
2022/10/25 07:53:59;;;;;;;10.97;4.97;;;14.50;99.90;;;;;;5062387;28;20514;-61
2022/10/25 07:56:26;;;;;;;6.13;4.30;;;14.60;99.90;;;;;;5075169;28;20821;-62
2022/10/25 07:58:53;;;;;;;6.40;5.23;;;14.70;99.90;;;;;;5074595;28;20446;-63
2022/10/25 08:01:21;;;;;;;13.23;4.53;;;14.80;99.90;;;;;;5073800;28;20526;-60
2022/10/25 08:03:48;;;;;;;6.40;4.63;;;14.90;99.90;;;;;;5074987;28;20473;-62
2022/10/25 08:06:15;;;;;;;8.55;4.45;;;14.90;99.90;;;;;;5077387;28;20439;-62
2022/10/25 08:08:42;;;;;;;6.33;4.53;;;15.00;99.90;;;;;;5075010;28;20579;-61
2022/10/25 08:11:10;;;;;;;6.93;4.27;;;15.10;99.90;;;;;;5074390;28;20479;-61
2022/10/25 08:13:38;;;;;;;9.70;4.73;;;15.20;99.90;;;;;;5074641;28;20545;-61
2022/10/25 08:16:06;;;;;;;8.60;4.70;;;15.20;99.90;;;;;;5074332;28;20471;-62
2022/10/25 08:18:34;;;;;;;7.47;4.17;;;15.30;99.90;;;;;;5073880;28;20459;-61
2022/10/25 08:21:01;;;;;;;5.07;3.93;;;15.30;99.90;;;;;;5074239;28;20530;-62
2022/10/25 08:23:30;;;;;;;9.20;5.00;;;15.40;99.90;;;;;;5074014;28;20439;-63
2022/10/25 08:25:56;;;;;;;6.63;4.53;;;15.40;99.90;;;;;;5073623;28;20495;-61
2022/10/25 08:28:25;;;;;;;9.30;4.30;;;15.50;99.90;;;;;;5073314;28;20441;-61
2022/10/25 08:30:54;;;;;;;7.23;4.40;;;15.50;99.90;;;;;;5073850;28;20475;-61
2022/10/25 08:33:21;;;;;;;7.37;4.67;;;15.50;99.90;;;;;;5073891;28;20455;-61
2022/10/25 08:35:47;;;;;;;8.10;4.40;;;15.50;99.90;;;;;;5072880;28;20460;-61
2022/10/25 08:38:14;;;;;;;7.90;4.77;;;15.60;99.90;;;;;;5073184;28;20447;-61
2022/10/25 08:40:50;;;;;;;6.43;4.80;;;15.60;99.90;;;;;;5073836;28;20482;-62
2022/10/25 08:43:33;;;;;;;14.30;4.50;;;15.60;99.90;;;;;;5073389;28;20442;-61
2022/10/25 08:46:02;;;;;;;4.90;4.40;;;15.60;99.90;;;;;;5073550;28;20513;-61
2022/10/25 08:48:34;;;;;;;10.73;4.77;;;15.60;99.90;;;;;;5073612;28;20455;-62
2022/10/25 08:51:04;;;;;;;5.90;4.33;;;15.70;99.90;;;;;;5073578;28;20463;-60
2022/10/25 08:53:34;;;;;;;7.50;4.33;;;15.80;99.90;;;;;;5073471;28;20526;-62
2022/10/25 08:56:01;;;;;;;5.13;3.97;;;15.90;99.90;;;;;;5076338;28;20467;-61
2022/10/25 08:58:32;;;;;;;8.30;4.60;;;15.90;99.90;;;;;;5078653;28;20442;-62
2022/10/25 09:01:03;;;;;;;9.13;4.18;;;16.00;99.90;;;;;;5078474;28;20435;-62
2022/10/25 09:03:30;;;;;;;5.03;3.53;;;16.00;99.90;;;;;;5078265;28;20196;-62
2022/10/25 09:06:09;;;;;;;5.73;3.70;;;16.10;99.90;;;;;;5077173;28;21009;-61
2022/10/25 09:08:50;;;;;;;4.03;3.20;;;16.10;99.90;;;;;;5077520;28;20923;-62
2022/10/25 09:11:32;;;;;;;10.00;4.50;;;16.10;99.90;;;;;;5077102;28;20466;-62
2022/10/25 09:14:06;;;;;;;10.20;3.57;;;16.10;99.90;;;;;;5076485;28;20439;-62
2022/10/25 09:16:39;;;;;;;6.60;3.80;;;16.10;99.90;;;;;;5076041;28;20423;-61
2022/10/25 09:19:15;;;;;;;8.60;3.90;;;16.20;99.90;;;;;;5076342;28;20451;-62
2022/10/25 09:21:46;;;;;;;3.40;3.10;;;16.30;99.90;;;;;;5077033;28;20427;-61
2022/10/25 09:24:20;;;;;;;3.43;3.13;;;16.40;99.90;;;;;;5076385;28;20462;-62
2022/10/25 09:26:56;;;;;;;7.23;3.37;;;16.60;99.90;;;;;;5076191;28;20443;-63
2022/10/25 09:29:29;;;;;;;5.07;3.60;;;16.70;99.90;;;;;;5076309;28;20423;-63
2022/10/25 09:32:00;;;;;;;6.80;3.60;;;16.70;99.90;;;;;;5076741;28;20486;-62
2022/10/25 09:34:31;;;;;;;6.70;3.43;;;16.80;99.90;;;;;;5076552;28;20474;-63
2022/10/25 09:37:04;;;;;;;6.60;3.63;;;16.90;99.90;;;;;;5076072;28;20442;-62
2022/10/25 09:39:37;;;;;;;7.33;3.90;;;17.10;99.90;;;;;;5075559;28;20424;-59
2022/10/25 09:42:06;;;;;;;5.53;3.30;;;17.20;99.90;;;;;;5075897;28;20424;-61
2022/10/25 09:44:40;;;;;;;5.60;3.40;;;17.30;99.90;;;;;;5075153;28;20494;-61
2022/10/25 09:47:16;;;;;;;6.57;3.23;;;17.30;99.90;;;;;;5075530;28;20465;-61
2022/10/25 09:49:51;;;;;;;7.40;3.47;;;17.20;99.90;;;;;;5076082;28;20434;-64
2022/10/25 09:52:25;;;;;;;5.15;3.22;;;17.20;99.90;;;;;;5076791;28;20470;-62
2022/10/25 09:54:55;;;;;;;7.43;3.50;;;17.10;99.90;;;;;;5076720;28;20224;-61
2022/10/25 09:57:21;;;;;;;7.50;3.20;;;17.00;99.90;;;;;;5075179;28;20494;-63
2022/10/25 09:59:51;;;;;;;3.67;2.63;;;16.80;99.90;;;;;;5075199;28;20445;-62
2022/10/25 10:02:22;;;;;;;4.63;3.60;;;16.80;99.90;;;;;;5075436;28;20475;-61
2022/10/25 10:04:50;;;;;;;7.43;3.00;;;16.70;99.90;;;;;;5075589;28;20467;-62
2022/10/25 10:07:22;;;;;;;5.00;2.93;;;16.60;99.90;;;;;;5075116;28;20443;-61
2022/10/25 10:09:51;;;;;;;4.50;2.73;;;16.50;99.90;;;;;;5075347;28;20423;-61
2022/10/25 10:12:23;;;;;;;5.27;3.63;;;16.40;99.90;;;;;;5076375;28;20459;-63
2022/10/25 10:14:56;;;;;;;4.03;2.80;;;16.30;99.90;;;;;;5075465;28;20474;-61
2022/10/25 10:17:24;;;;;;;6.43;3.40;;;16.30;99.90;;;;;;5075179;28;20432;-61
2022/10/25 10:20:09;;;;;;;8.77;3.50;;;16.40;99.90;;;;;;5075062;28;20435;-61
2022/10/25 10:22:38;;;;;;;4.27;2.83;;;16.60;99.90;;;;;;5075074;28;20795;-61
2022/10/25 10:25:05;;;;;;;8.40;3.20;;;16.80;99.90;;;;;;5075334;28;20470;-61
2022/10/25 10:27:33;;;;;;;5.63;2.53;;;17.00;99.90;;;;;;5075805;28;20431;-64
2022/10/25 10:30:06;;;;;;;2.70;2.47;;;17.20;99.90;;;;;;5075594;28;20877;-60
2022/10/25 10:32:34;;;;;;;5.43;3.00;;;17.30;99.40;;;;;;5075812;28;20435;-62
2022/10/25 10:35:04;;;;;;;3.70;2.57;;;17.20;98.50;;;;;;5074983;28;20458;-61
2022/10/25 10:37:33;;;;;;;4.32;1.90;;;17.20;98.30;;;;;;5075265;28;20963;-61
2022/10/25 10:40:01;;;;;;;4.30;2.93;;;17.10;98.20;;;;;;5075528;28;20201;-62
2022/10/25 10:42:34;;;;;;;5.37;2.60;;;17.10;97.90;;;;;;5076065;28;20456;-63
2022/10/25 10:45:19;;;;;;;2.63;2.35;;;17.10;97.60;;;;;;5075776;28;20517;-62
2022/10/25 10:47:56;;;;;;;6.00;2.73;;;16.90;97.30;;;;;;5073456;28;20288;-62
2022/10/25 10:50:27;;;;;;;4.90;2.43;;;16.80;97.00;;;;;;5075704;28;20423;-62
2022/10/25 10:52:57;;;;;;;3.60;2.93;;;16.60;97.20;;;;;;5075586;28;20483;-61
2022/10/25 10:55:29;;;;;;;5.20;2.60;;;16.50;97.50;;;;;;5075758;28;20463;-61
2022/10/25 10:58:01;;;;;;;3.30;2.47;;;16.50;98.00;;;;;;5076131;28;20439;-62
2022/10/25 11:00:31;;;;;;;5.10;2.40;;;16.50;98.20;;;;;;5075242;28;20518;-63
2022/10/25 11:02:58;;;;;;;6.47;2.60;;;16.60;98.20;;;;;;5075532;28;20185;-62
2022/10/25 11:05:27;;;;;;;3.30;2.50;;;16.70;98.30;;;;;;5075026;28;20471;-62
2022/10/25 11:07:56;;;;;;;4.80;3.33;;;16.90;97.90;;;;;;5075372;28;20973;-63
2022/10/25 11:10:26;;;;;;;4.90;3.00;;;17.00;97.50;;;;;;5074807;28;20959;-62
2022/10/25 11:13:16;;;;;;;4.80;2.30;;;17.10;97.30;;;;;;5074981;28;20447;-61
2022/10/25 11:16:16;;;;;;;3.23;2.20;;;17.20;97.00;;;;;;5075361;28;20523;-62
2022/10/25 11:18:54;;;;;;;4.72;2.42;;;17.10;96.80;;;;;;5072213;28;20470;-61
2022/10/25 11:21:37;;;;;;;3.40;2.57;;;17.00;97.00;;;;;;5074728;28;20187;-62
2022/10/25 11:24:15;;;;;;;6.57;2.50;;;17.00;97.30;;;;;;5074204;28;20424;-62
2022/10/25 11:26:57;;;;;;;10.60;3.27;;;17.00;97.40;;;;;;5074206;28;20461;-62
2022/10/25 11:29:45;;;;;;;5.07;2.28;;;17.00;97.40;;;;;;5074141;28;20934;-63
2022/10/25 11:32:30;;;;;;;5.77;2.90;;;16.90;97.60;;;;;;5075059;28;20205;-61
2022/10/25 11:35:09;;;;;;;3.90;2.60;;;16.90;97.70;;;;;;5074671;28;20973;-63
2022/10/25 11:37:42;;;;;;;4.17;2.50;;;16.80;97.80;;;;;;5074556;28;20944;-64
2022/10/25 11:40:14;;;;;;;6.87;3.47;;;16.80;98.20;;;;;;5074286;28;20431;-62
2022/10/25 11:42:59;;;;;;;6.17;2.90;;;16.80;98.20;;;;;;5074173;28;20424;-61
2022/10/25 11:45:34;;;;;;;8.30;3.60;;;16.80;98.50;;;;;;5074508;28;20546;-62
2022/10/25 11:48:23;;;;;;;4.67;2.63;;;16.80;98.50;;;;;;5074641;28;20426;-62
2022/10/25 11:51:00;;;;;;;3.70;2.70;;;16.90;98.40;;;;;;5074132;28;20471;-61
2022/10/25 11:53:41;;;;;;;6.40;3.00;;;17.00;98.20;;;;;;5074477;28;20427;-60
2022/10/25 11:56:16;;;;;;;6.57;3.25;;;17.10;98.20;;;;;;5074651;28;20469;-61
2022/10/25 11:58:51;;;;;;;7.33;2.67;;;17.20;98.20;;;;;;5074254;28;20188;-61
2022/10/25 12:01:35;;;;;;;7.23;2.93;;;17.20;98.00;;;;;;5073972;28;20538;-62
2022/10/25 12:04:28;;;;;;;4.30;2.72;;;17.30;97.80;;;;;;5074187;28;20432;-61
2022/10/25 12:07:04;;;;;;;5.20;2.60;;;17.30;97.50;;;;;;5074079;28;20196;-62
2022/10/25 12:09:41;;;;;;;4.50;2.50;;;17.40;97.30;;;;;;5074108;28;20447;-63
2022/10/25 12:12:12;;;;;;;7.47;2.50;;;17.60;97.20;;;;;;5073738;28;20475;-62
2022/10/25 12:14:43;;;;;;;4.87;2.60;;;17.90;96.40;;;;;;5073988;28;20866;-62
2022/10/25 12:17:21;;;;;;;5.80;2.50;;;18.00;95.40;;;;;;5073055;28;20431;-62
2022/10/25 12:19:51;;;;;;;7.80;2.70;;;18.20;94.80;;;;;;5075931;28;20446;-62
2022/10/25 12:22:24;;;;;;;5.60;1.70;;;18.20;94.20;;;;;;5074737;28;20439;-61
2022/10/25 12:24:57;;;;;;;6.73;2.27;;;18.20;93.30;;;;;;5074261;28;20818;-62
2022/10/25 12:27:26;;;;;;;7.00;2.20;;;18.00;92.80;;;;;;5075503;28;20876;-61
2022/10/25 12:29:56;;;;;;;5.07;1.80;;;17.90;92.40;;;;;;5076592;28;20822;-62
2022/10/25 12:32:28;;;;;;;3.60;1.83;;;17.70;92.30;;;;;;5081227;28;20459;-63
2022/10/25 12:34:57;;;;;;;2.67;1.55;;;17.70;92.40;;;;;;5082675;28;20477;-63
2022/10/25 12:37:35;;;;;;;4.37;1.80;;;17.70;92.10;;;;;;5083300;28;20205;-62
2022/10/25 12:40:03;;;;;;;2.07;1.50;;;17.70;91.70;;;;;;5082898;28;20439;-61
2022/10/25 12:42:33;;;;;;;2.40;1.40;;;17.60;91.50;;;;;;5083290;28;20435;-62
2022/10/25 12:45:21;;;;;;;3.43;1.60;;;17.70;90.80;;;;;;5115039;22;20488;-61
2022/10/25 12:47:59;;;;;;;6.00;1.63;;;17.70;90.50;;;;;;5096961;28;20423;-62
2022/10/25 12:50:49;;;;;;;3.10;1.70;;;17.80;89.60;;;;;;5097057;28;20441;-63
2022/10/25 12:53:55;;;;;;;2.63;1.57;;;17.80;88.00;;;;;;5096360;28;20434;-63
2022/10/25 12:56:38;;;;;;;3.80;1.30;;;17.70;87.60;;;;;;5096317;28;20969;-63
2022/10/25 12:59:09;;;;;;;2.23;1.70;;;17.80;87.40;;;;;;5096877;28;20446;-63
2022/10/25 13:01:53;;;;;;;5.83;1.90;;;17.80;86.80;;;;;;5096705;28;20429;-62
2022/10/25 13:04:49;;;;;;;5.80;1.97;;;17.90;86.80;;;;;;5097221;28;20473;-64
2022/10/25 13:07:16;;;;;;;4.13;1.70;;;18.00;86.30;;;;;;5096625;28;20798;-62